Time;durP1;ratioP1;P1;durP2;ratioP2;P2;SDS_P1;SDS_P2;PMS_P1;PMS_P2;Temp;Humidity;BMP_temperature;BMP_pressure;BME280_temperature;BME280_humidity;BME280_pressure;Samples;Min_cycle;Max_cycle;Signal;HPM_P1;HPM_P2
2023/01/29 00:01:04;;;;;;;37.08;22.33;;;;;;;;;;5003597;28;20022;-75
2023/01/29 00:03:30;;;;;;;40.92;24.83;;;;;;;;;;5006716;28;20036;-75
2023/01/29 00:05:56;;;;;;;41.88;23.30;;;;;;;;;;5006266;28;20026;-76
2023/01/29 00:08:22;;;;;;;43.38;24.50;;;;;;;;;;5005846;28;20038;-76
2023/01/29 00:10:48;;;;;;;40.22;23.35;;;;;;;;;;5006652;28;20034;-76
2023/01/29 00:13:15;;;;;;;44.63;25.80;;;;;;;;;;5005262;28;20041;-74
2023/01/29 00:15:41;;;;;;;40.00;23.83;;;;;;;;;;4988416;28;20049;-75
2023/01/29 00:18:09;;;;;;;41.72;24.83;;;;;;;;;;5005626;28;20057;-74
2023/01/29 00:20:35;;;;;;;44.22;25.92;;;;;;;;;;5006606;28;20034;-74
2023/01/29 00:23:01;;;;;;;40.10;24.80;;;;;;;;;;5001393;28;20137;-76
2023/01/29 00:25:27;;;;;;;40.13;23.63;;;;;;;;;;5006467;28;20109;-74
2023/01/29 00:27:53;;;;;;;38.35;23.55;;;;;;;;;;5005228;28;20767;-74
2023/01/29 00:30:20;;;;;;;38.30;23.90;;;;;;;;;;5003921;28;20100;-76
2023/01/29 00:32:46;;;;;;;37.17;22.65;;;;;;;;;;5004495;28;20028;-77
2023/01/29 00:35:12;;;;;;;34.58;22.13;;;;;;;;;;5001792;28;20088;-75
2023/01/29 00:37:38;;;;;;;40.70;22.63;;;;;;;;;;5007903;28;20052;-77
2023/01/29 00:40:05;;;;;;;39.38;22.73;;;;;;;;;;4989020;28;20018;-76
2023/01/29 00:45:16;;;;;;;40.20;23.35;;;;;;;;;;5004573;28;20053;-76
2023/01/29 00:47:42;;;;;;;38.65;21.98;;;;;;;;;;4996261;28;20026;-74
2023/01/29 00:50:10;;;;;;;36.90;22.02;;;;;;;;;;5000965;28;20018;-75
2023/01/29 00:52:37;;;;;;;37.63;21.60;;;;;;;;;;5003942;28;20022;-75
2023/01/29 00:55:05;;;;;;;32.90;20.05;;;;;;;;;;5002100;28;20030;-74
2023/01/29 00:57:32;;;;;;;41.05;23.27;;;;;;;;;;5004792;28;20121;-75
2023/01/29 00:59:58;;;;;;;35.20;21.58;;;;;;;;;;5007587;28;20029;-75
2023/01/29 01:05:16;;;;;;;38.47;22.63;;;;;;;;;;4999560;28;20041;-75
2023/01/29 01:07:43;;;;;;;37.95;22.25;;;;;;;;;;5008812;28;20351;-75
2023/01/29 01:10:20;;;;;;;36.55;21.90;;;;;;;;;;5005890;28;20030;-75
2023/01/29 01:12:46;;;;;;;39.55;23.48;;;;;;;;;;5006756;28;20906;-75
2023/01/29 01:15:12;;;;;;;37.05;22.67;;;;;;;;;;4973434;28;20088;-74
2023/01/29 01:17:40;;;;;;;39.03;22.20;;;;;;;;;;5003914;28;20052;-74
2023/01/29 01:20:08;;;;;;;38.17;22.23;;;;;;;;;;5008837;28;20057;-75
2023/01/29 01:22:34;;;;;;;38.35;22.25;;;;;;;;;;5006813;28;20052;-76
2023/01/29 01:25:00;;;;;;;42.55;22.80;;;;;;;;;;5002060;28;20117;-74
2023/01/29 01:27:27;;;;;;;37.55;23.27;;;;;;;;;;5002612;28;20376;-75
2023/01/29 01:29:53;;;;;;;35.95;21.77;;;;;;;;;;5002623;28;20034;-74
2023/01/29 01:32:20;;;;;;;39.00;22.40;;;;;;;;;;5001458;28;20120;-75
2023/01/29 01:34:46;;;;;;;36.50;21.42;;;;;;;;;;5002690;28;20124;-75
2023/01/29 01:37:13;;;;;;;35.53;21.83;;;;;;;;;;4987550;28;20033;-75
2023/01/29 01:39:39;;;;;;;37.97;21.40;;;;;;;;;;4985739;28;20033;-75
2023/01/29 01:42:12;;;;;;;34.80;21.45;;;;;;;;;;5005520;28;20089;-75
2023/01/29 01:44:53;;;;;;;37.33;22.30;;;;;;;;;;5001282;28;20267;-74
2023/01/29 01:47:41;;;;;;;37.40;21.92;;;;;;;;;;5001920;28;20022;-75
2023/01/29 01:50:30;;;;;;;39.65;23.05;;;;;;;;;;5001001;28;20057;-75
2023/01/29 01:53:09;;;;;;;37.55;23.70;;;;;;;;;;4996265;28;20038;-75
2023/01/29 01:55:37;;;;;;;42.97;24.33;;;;;;;;;;4999694;28;20026;-74
2023/01/29 01:58:10;;;;;;;41.15;24.40;;;;;;;;;;5003959;28;20034;-75
2023/01/29 02:00:38;;;;;;;40.38;24.30;;;;;;;;;;4998060;28;20022;-75
2023/01/29 02:11:42;;;;;;;40.45;23.25;;;;;;;;;;5003060;28;20022;-75
2023/01/29 02:14:09;;;;;;;46.78;25.60;;;;;;;;;;5004055;28;20037;-77
2023/01/29 02:16:35;;;;;;;41.33;25.45;;;;;;;;;;5003111;28;20037;-75
2023/01/29 02:19:03;;;;;;;40.83;24.25;;;;;;;;;;5004978;28;20061;-74
2023/01/29 02:21:50;;;;;;;44.25;24.38;;;;;;;;;;5004943;28;20121;-74
2023/01/29 02:24:31;;;;;;;38.25;24.20;;;;;;;;;;5004817;28;20025;-74
2023/01/29 02:27:08;;;;;;;40.72;24.40;;;;;;;;;;5003398;28;20064;-74
2023/01/29 02:29:40;;;;;;;40.65;24.63;;;;;;;;;;5004880;28;20029;-74
2023/01/29 02:32:22;;;;;;;41.72;24.73;;;;;;;;;;5003050;28;20030;-75
2023/01/29 02:37:37;;;;;;;44.80;25.95;;;;;;;;;;5003832;28;20034;-74
2023/01/29 02:40:12;;;;;;;43.47;25.73;;;;;;;;;;5005495;28;20034;-76
2023/01/29 02:42:42;;;;;;;41.40;25.20;;;;;;;;;;5000709;28;20030;-73
2023/01/29 02:45:12;;;;;;;48.83;26.65;;;;;;;;;;5004786;28;20065;-74
2023/01/29 02:47:42;;;;;;;42.85;26.30;;;;;;;;;;5005748;28;20030;-75
2023/01/29 02:50:18;;;;;;;47.47;27.58;;;;;;;;;;5003139;28;20026;-76
2023/01/29 02:52:50;;;;;;;41.95;25.92;;;;;;;;;;5020856;28;20096;-74
2023/01/29 02:55:20;;;;;;;45.15;26.98;;;;;;;;;;5018655;28;20095;-74
2023/01/29 02:57:48;;;;;;;44.20;26.00;;;;;;;;;;5002280;28;20278;-75
2023/01/29 03:00:22;;;;;;;47.17;27.45;;;;;;;;;;5004780;28;20105;-77
2023/01/29 03:02:59;;;;;;;51.10;28.25;;;;;;;;;;5005156;28;20037;-75
2023/01/29 03:05:31;;;;;;;45.47;27.90;;;;;;;;;;5004085;28;20149;-75
2023/01/29 03:08:01;;;;;;;50.63;28.73;;;;;;;;;;5001033;28;20022;-76
2023/01/29 03:10:41;;;;;;;46.25;27.40;;;;;;;;;;5004610;28;20018;-75
2023/01/29 03:13:22;;;;;;;48.80;27.90;;;;;;;;;;5001101;28;20018;-76
2023/01/29 03:16:00;;;;;;;50.72;28.88;;;;;;;;;;5004169;28;20034;-75
2023/01/29 03:18:44;;;;;;;54.63;30.83;;;;;;;;;;5005485;28;20116;-75
2023/01/29 03:32:27;;;;;;;48.33;29.30;;;;;;;;;;5002174;28;20087;-74
2023/01/29 03:34:57;;;;;;;52.10;30.55;;;;;;;;;;5005022;28;20105;-76
2023/01/29 03:37:26;;;;;;;53.22;32.63;;;;;;;;;;5006013;28;20038;-75
2023/01/29 03:39:53;;;;;;;58.17;31.55;;;;;;;;;;5001169;28;20034;-74
2023/01/29 03:42:29;;;;;;;52.17;31.02;;;;;;;;;;5003362;28;20034;-75
2023/01/29 03:45:14;;;;;;;56.50;31.98;;;;;;;;;;4986507;28;20054;-74
2023/01/29 03:48:02;;;;;;;55.00;32.80;;;;;;;;;;4999709;28;20040;-75
2023/01/29 03:50:47;;;;;;;53.95;31.02;;;;;;;;;;5006754;28;20037;-74
2023/01/29 03:53:16;;;;;;;53.90;31.70;;;;;;;;;;4988630;28;20029;-74
2023/01/29 03:55:42;;;;;;;54.42;31.23;;;;;;;;;;5005201;28;20029;-77
2023/01/29 03:58:15;;;;;;;59.55;31.52;;;;;;;;;;4991583;28;20022;-74
2023/01/29 04:00:49;;;;;;;59.38;32.08;;;;;;;;;;5008336;28;20514;-74
2023/01/29 04:03:37;;;;;;;56.78;32.42;;;;;;;;;;5001619;28;20038;-74
2023/01/29 04:06:15;;;;;;;54.58;32.80;;;;;;;;;;5003609;28;20042;-76
2023/01/29 04:09:23;;;;;;;61.80;33.22;;;;;;;;;;5001903;28;20045;-75
2023/01/29 04:11:53;;;;;;;57.13;32.20;;;;;;;;;;4984860;28;20400;-76
2023/01/29 04:14:19;;;;;;;56.47;31.75;;;;;;;;;;5003537;28;20042;-77
2023/01/29 04:16:49;;;;;;;51.40;31.08;;;;;;;;;;5006346;28;20127;-75
2023/01/29 04:19:23;;;;;;;61.15;33.33;;;;;;;;;;5004643;28;20030;-75
2023/01/29 04:21:52;;;;;;;57.60;32.58;;;;;;;;;;5004360;28;20034;-75
2023/01/29 04:24:18;;;;;;;55.97;31.27;;;;;;;;;;5005882;28;20041;-75
2023/01/29 04:26:44;;;;;;;59.20;32.35;;;;;;;;;;5009327;28;20029;-75
2023/01/29 04:29:16;;;;;;;63.45;32.58;;;;;;;;;;5002267;28;20037;-75
2023/01/29 04:31:47;;;;;;;54.83;30.92;;;;;;;;;;5007952;28;20124;-74
2023/01/29 04:34:28;;;;;;;59.50;32.17;;;;;;;;;;5005217;28;20034;-76
2023/01/29 04:37:04;;;;;;;54.25;31.77;;;;;;;;;;5010560;28;20099;-75
2023/01/29 04:39:49;;;;;;;59.63;31.90;;;;;;;;;;5003599;28;20121;-75
2023/01/29 04:42:15;;;;;;;55.17;31.10;;;;;;;;;;5004921;28;20112;-75
2023/01/29 04:44:54;;;;;;;56.05;31.73;;;;;;;;;;5006132;28;20092;-74
2023/01/29 04:47:29;;;;;;;63.70;32.88;;;;;;;;;;5004463;28;20073;-75
2023/01/29 04:49:58;;;;;;;55.38;31.25;;;;;;;;;;5005910;28;20052;-75
2023/01/29 04:52:28;;;;;;;54.83;30.95;;;;;;;;;;5006684;28;20026;-75
2023/01/29 04:54:57;;;;;;;57.90;33.67;;;;;;;;;;5005036;28;20026;-75
2023/01/29 04:57:30;;;;;;;55.00;31.65;;;;;;;;;;5005268;28;20033;-75
2023/01/29 05:00:01;;;;;;;56.80;31.08;;;;;;;;;;5006964;28;20033;-75
2023/01/29 05:02:27;;;;;;;56.25;31.55;;;;;;;;;;5001441;28;20046;-75
2023/01/29 05:04:54;;;;;;;59.22;31.00;;;;;;;;;;5004596;28;20029;-75
2023/01/29 05:07:23;;;;;;;56.63;31.92;;;;;;;;;;5002222;28;20038;-76
2023/01/29 05:09:49;;;;;;;53.67;30.63;;;;;;;;;;5002902;28;20030;-75
2023/01/29 05:12:17;;;;;;;53.45;31.33;;;;;;;;;;5009328;28;20026;-75
2023/01/29 05:14:44;;;;;;;51.80;30.02;;;;;;;;;;4997826;28;20060;-75
2023/01/29 05:17:15;;;;;;;52.72;28.70;;;;;;;;;;5004930;28;20175;-76
2023/01/29 05:19:41;;;;;;;;;;;;;;;;;;5007317;28;20030;-75
2023/01/29 05:22:10;;;;;;;49.50;29.35;;;;;;;;;;5004021;28;19932;-75
2023/01/29 05:24:36;;;;;;;54.13;30.52;;;;;;;;;;5002426;28;20021;-75
2023/01/29 05:29:48;;;;;;;59.42;32.35;;;;;;;;;;5003291;28;20390;-75
2023/01/29 05:32:14;;;;;;;56.45;32.58;;;;;;;;;;5008037;28;20038;-74
2023/01/29 05:34:41;;;;;;;52.17;30.73;;;;;;;;;;5005218;28;20018;-76
2023/01/29 05:37:07;;;;;;;53.90;31.40;;;;;;;;;;5006522;28;20105;-76
2023/01/29 05:39:33;;;;;;;57.08;31.73;;;;;;;;;;5002285;28;20033;-75
2023/01/29 05:41:59;;;;;;;53.38;32.58;;;;;;;;;;4999596;28;20100;-75
2023/01/29 05:44:26;;;;;;;56.50;32.28;;;;;;;;;;5003690;28;20058;-75
2023/01/29 05:46:52;;;;;;;58.40;32.33;;;;;;;;;;5005694;28;20030;-75
2023/01/29 05:49:19;;;;;;;57.08;32.50;;;;;;;;;;5004432;28;20105;-76
2023/01/29 05:51:45;;;;;;;65.78;33.60;;;;;;;;;;5006056;28;20014;-76
2023/01/29 05:54:12;;;;;;;55.05;30.98;;;;;;;;;;5004103;28;20053;-75
2023/01/29 05:56:39;;;;;;;55.65;33.03;;;;;;;;;;4999108;28;20038;-74
2023/01/29 05:59:06;;;;;;;53.47;32.53;;;;;;;;;;5002037;28;20034;-75
2023/01/29 06:01:32;;;;;;;57.00;32.15;;;;;;;;;;5001481;28;20026;-75
2023/01/29 06:03:58;;;;;;;57.83;32.30;;;;;;;;;;5001953;28;20030;-74
2023/01/29 06:06:24;;;;;;;57.15;31.90;;;;;;;;;;5002859;28;20038;-74
2023/01/29 06:08:51;;;;;;;54.83;32.55;;;;;;;;;;5000360;28;20061;-74
2023/01/29 06:11:17;;;;;;;58.78;31.40;;;;;;;;;;5002531;28;20121;-76
2023/01/29 06:13:44;;;;;;;52.22;31.02;;;;;;;;;;4999119;28;20057;-74
2023/01/29 06:16:11;;;;;;;51.85;30.58;;;;;;;;;;5000803;28;20034;-75
2023/01/29 06:18:38;;;;;;;55.17;32.38;;;;;;;;;;5002772;28;20030;-75
2023/01/29 06:21:05;;;;;;;53.72;31.55;;;;;;;;;;5003397;28;20023;-76
2023/01/29 06:23:31;;;;;;;54.15;31.63;;;;;;;;;;5004926;28;20097;-74
2023/01/29 06:26:01;;;;;;;58.63;32.05;;;;;;;;;;4998735;28;20106;-75
2023/01/29 06:28:27;;;;;;;52.03;31.80;;;;;;;;;;5005104;28;20030;-74
2023/01/29 06:30:57;;;;;;;54.35;31.60;;;;;;;;;;4995616;28;20026;-74
2023/01/29 06:33:23;;;;;;;55.30;30.73;;;;;;;;;;5003326;28;20113;-75
2023/01/29 06:35:49;;;;;;;52.53;31.08;;;;;;;;;;4983206;28;20400;-75
2023/01/29 06:38:15;;;;;;;52.75;31.63;;;;;;;;;;5002538;28;20033;-76
2023/01/29 06:40:41;;;;;;;56.28;32.90;;;;;;;;;;5002121;28;20123;-74
2023/01/29 06:43:07;;;;;;;55.10;30.33;;;;;;;;;;5001680;28;20034;-74
2023/01/29 06:45:33;;;;;;;53.75;31.35;;;;;;;;;;4999256;28;20070;-74
2023/01/29 06:47:59;;;;;;;50.17;30.67;;;;;;;;;;5000767;28;20026;-74
2023/01/29 06:50:25;;;;;;;55.15;31.38;;;;;;;;;;5002993;28;20052;-76
2023/01/29 06:52:52;;;;;;;62.00;30.30;;;;;;;;;;5003403;28;20066;-77
2023/01/29 06:55:18;;;;;;;54.30;31.67;;;;;;;;;;5002927;28;20048;-74
2023/01/29 06:57:44;;;;;;;54.15;32.97;;;;;;;;;;5004275;28;20041;-74
2023/01/29 07:00:10;;;;;;;54.47;32.15;;;;;;;;;;5001542;28;20030;-76
2023/01/29 07:02:36;;;;;;;50.17;30.20;;;;;;;;;;5002612;28;20030;-75
2023/01/29 07:05:03;;;;;;;53.05;32.15;;;;;;;;;;5005691;28;20206;-75
2023/01/29 07:07:29;;;;;;;55.08;31.13;;;;;;;;;;4969654;28;20034;-77
2023/01/29 07:09:55;;;;;;;52.78;32.13;;;;;;;;;;5000940;28;20052;-74
2023/01/29 07:12:21;;;;;;;52.25;31.35;;;;;;;;;;5002118;28;20040;-75
2023/01/29 07:14:47;;;;;;;48.67;29.73;;;;;;;;;;4999008;28;20577;-73
2023/01/29 07:17:13;;;;;;;49.80;31.40;;;;;;;;;;5000307;28;20053;-73
2023/01/29 07:19:39;;;;;;;47.30;29.13;;;;;;;;;;4996992;28;20034;-73
2023/01/29 07:22:05;;;;;;;49.08;29.48;;;;;;;;;;5001051;28;20055;-81
2023/01/29 07:24:32;;;;;;;47.75;28.15;;;;;;;;;;4984991;28;20037;-74
2023/01/29 07:26:58;;;;;;;48.60;28.88;;;;;;;;;;4988404;28;20030;-73
2023/01/29 07:29:24;;;;;;;48.20;29.15;;;;;;;;;;5006027;28;20029;-74
2023/01/29 07:31:50;;;;;;;48.20;29.25;;;;;;;;;;5008816;28;20112;-73
2023/01/29 07:34:16;;;;;;;50.15;28.50;;;;;;;;;;5021891;28;20033;-74
2023/01/29 07:36:43;;;;;;;47.40;29.67;;;;;;;;;;4987647;28;21965;-73
2023/01/29 07:39:09;;;;;;;48.67;29.35;;;;;;;;;;5009453;28;20049;-74
2023/01/29 07:41:35;;;;;;;50.63;28.92;;;;;;;;;;4997777;28;20481;-73
2023/01/29 07:44:07;;;;;;;50.78;30.38;;;;;;;;;;5002975;28;20100;-74
2023/01/29 07:46:33;;;;;;;52.33;29.92;;;;;;;;;;5005892;28;20052;-74
2023/01/29 07:48:59;;;;;;;50.38;30.17;;;;;;;;;;5002338;28;20145;-73
2023/01/29 07:51:25;;;;;;;50.50;30.38;;;;;;;;;;5008495;28;20044;-75
2023/01/29 07:53:52;;;;;;;52.83;30.58;;;;;;;;;;5008328;28;20284;-75
2023/01/29 07:56:18;;;;;;;50.50;28.85;;;;;;;;;;5000906;28;20044;-74
2023/01/29 07:58:44;;;;;;;50.78;30.73;;;;;;;;;;5002904;28;20125;-73
2023/01/29 08:01:10;;;;;;;48.97;29.05;;;;;;;;;;5003727;28;20387;-79
2023/01/29 08:03:36;;;;;;;49.00;29.63;;;;;;;;;;5003360;28;20052;-75
2023/01/29 08:06:03;;;;;;;51.45;28.83;;;;;;;;;;5004783;28;20053;-75
2023/01/29 08:08:29;;;;;;;53.00;29.67;;;;;;;;;;4999766;28;20108;-75
2023/01/29 08:10:56;;;;;;;45.50;28.45;;;;;;;;;;5004812;28;20092;-74
2023/01/29 08:13:22;;;;;;;46.17;28.67;;;;;;;;;;5012539;28;20069;-75
2023/01/29 08:15:48;;;;;;;49.63;28.33;;;;;;;;;;5012712;28;20149;-73
2023/01/29 08:18:14;;;;;;;51.65;28.75;;;;;;;;;;5009965;28;20037;-74
2023/01/29 08:20:40;;;;;;;43.75;28.20;;;;;;;;;;5009608;28;20129;-74
2023/01/29 08:23:08;;;;;;;48.72;29.58;;;;;;;;;;5011502;28;20045;-74
2023/01/29 08:25:35;;;;;;;44.63;27.45;;;;;;;;;;5011746;28;20061;-74
2023/01/29 08:28:01;;;;;;;51.78;27.83;;;;;;;;;;5010513;28;20033;-74
2023/01/29 08:30:29;;;;;;;44.20;27.33;;;;;;;;;;5011721;28;20030;-75
2023/01/29 08:32:57;;;;;;;45.50;27.33;;;;;;;;;;5012033;28;20113;-74
2023/01/29 08:35:24;;;;;;;42.80;26.52;;;;;;;;;;5011770;28;20060;-75
2023/01/29 08:37:54;;;;;;;46.70;27.73;;;;;;;;;;5013066;28;20101;-73
2023/01/29 08:40:20;;;;;;;49.00;25.83;;;;;;;;;;5011348;28;20481;-74
2023/01/29 08:42:46;;;;;;;43.03;26.42;;;;;;;;;;5012999;28;20048;-74
2023/01/29 08:45:12;;;;;;;45.08;27.77;;;;;;;;;;5011358;28;20072;-73
2023/01/29 08:47:38;;;;;;;44.20;26.48;;;;;;;;;;5013812;28;20038;-73
2023/01/29 08:50:04;;;;;;;46.90;28.02;;;;;;;;;;5010848;28;20038;-72
2023/01/29 08:52:30;;;;;;;45.67;28.50;;;;;;;;;;5012042;28;20026;-75
2023/01/29 08:54:57;;;;;;;47.67;28.38;;;;;;;;;;4993148;28;20475;-73
2023/01/29 08:57:23;;;;;;;44.10;28.10;;;;;;;;;;5010293;28;20141;-73
2023/01/29 08:59:49;;;;;;;44.80;26.88;;;;;;;;;;5010413;28;20189;-75
2023/01/29 09:02:15;;;;;;;52.95;27.92;;;;;;;;;;5011476;28;20147;-75
2023/01/29 09:04:41;;;;;;;46.33;27.10;;;;;;;;;;5011086;28;20038;-74
2023/01/29 09:07:07;;;;;;;45.58;27.98;;;;;;;;;;5009789;28;20034;-74
2023/01/29 09:09:33;;;;;;;51.83;28.20;;;;;;;;;;5009259;28;20026;-73
2023/01/29 09:11:59;;;;;;;45.78;27.48;;;;;;;;;;5010004;28;20121;-74
2023/01/29 09:14:26;;;;;;;46.35;26.73;;;;;;;;;;5009737;28;20343;-74
2023/01/29 09:16:52;;;;;;;43.35;25.98;;;;;;;;;;5004868;28;20042;-74
2023/01/29 09:19:18;;;;;;;46.88;27.55;;;;;;;;;;5008565;28;20076;-74
2023/01/29 09:21:44;;;;;;;45.22;27.50;;;;;;;;;;5009987;28;20111;-74
2023/01/29 09:24:10;;;;;;;45.40;27.45;;;;;;;;;;5010681;28;20072;-74
2023/01/29 09:26:38;;;;;;;46.10;25.80;;;;;;;;;;5010870;28;20034;-74
2023/01/29 09:29:05;;;;;;;45.28;27.15;;;;;;;;;;5009666;28;20029;-74
2023/01/29 09:31:33;;;;;;;42.90;26.45;;;;;;;;;;5011062;28;20026;-73
2023/01/29 09:33:59;;;;;;;42.30;26.13;;;;;;;;;;5010312;28;20141;-76
2023/01/29 09:36:25;;;;;;;46.67;27.00;;;;;;;;;;5009548;28;20034;-75
2023/01/29 09:38:51;;;;;;;42.42;26.90;;;;;;;;;;5010781;28;20163;-75
2023/01/29 09:41:17;;;;;;;44.67;26.42;;;;;;;;;;5010672;28;20072;-74
2023/01/29 09:43:55;;;;;;;42.85;27.55;;;;;;;;;;5009021;28;20042;-75
2023/01/29 09:46:40;;;;;;;41.47;26.40;;;;;;;;;;5009247;28;20037;-73
2023/01/29 09:49:10;;;;;;;44.15;27.40;;;;;;;;;;5008242;28;20026;-73
2023/01/29 09:51:40;;;;;;;41.35;26.08;;;;;;;;;;5010224;28;20132;-75
2023/01/29 09:54:26;;;;;;;44.97;28.13;;;;;;;;;;5009774;28;20117;-75
2023/01/29 09:56:55;;;;;;;45.33;27.02;;;;;;;;;;5008726;28;20037;-73
2023/01/29 09:59:22;;;;;;;49.42;27.00;;;;;;;;;;4991351;28;20045;-74
2023/01/29 10:02:06;;;;;;;43.20;26.27;;;;;;;;;;4989979;28;20042;-75
2023/01/29 10:04:51;;;;;;;43.78;26.95;;;;;;;;;;4991644;28;20038;-75
2023/01/29 10:07:17;;;;;;;47.20;28.58;;;;;;;;;;4991267;28;20502;-74
2023/01/29 10:09:56;;;;;;;44.10;26.08;;;;;;;;;;4991494;28;20054;-74
2023/01/29 10:12:41;;;;;;;45.00;27.70;;;;;;;;;;4991780;28;20077;-73
2023/01/29 10:15:25;;;;;;;43.53;26.77;;;;;;;;;;4999807;28;20034;-75
2023/01/29 10:18:07;;;;;;;42.08;26.95;;;;;;;;;;4990837;28;20030;-73
2023/01/29 10:20:49;;;;;;;44.10;26.63;;;;;;;;;;4990485;28;20038;-75
2023/01/29 10:23:20;;;;;;;43.92;26.63;;;;;;;;;;4990228;28;20038;-75
2023/01/29 10:25:47;;;;;;;53.58;28.45;;;;;;;;;;4990251;28;20085;-74
2023/01/29 10:28:18;;;;;;;47.70;27.95;;;;;;;;;;4998381;28;20103;-74
2023/01/29 10:30:49;;;;;;;49.80;29.83;;;;;;;;;;5009988;28;20030;-74
2023/01/29 10:33:35;;;;;;;49.65;28.00;;;;;;;;;;5009583;28;20033;-74
2023/01/29 10:36:03;;;;;;;52.40;30.52;;;;;;;;;;5009580;28;20048;-75
2023/01/29 10:38:34;;;;;;;47.45;29.40;;;;;;;;;;5008657;28;20033;-76
2023/01/29 10:41:24;;;;;;;50.40;30.70;;;;;;;;;;5009477;28;20192;-75
2023/01/29 10:43:54;;;;;;;53.90;30.52;;;;;;;;;;4964547;28;20049;-75
2023/01/29 10:46:32;;;;;;;57.53;31.15;;;;;;;;;;4991326;28;20133;-75
2023/01/29 10:49:01;;;;;;;50.50;31.30;;;;;;;;;;5008199;28;20061;-74
2023/01/29 10:51:48;;;;;;;48.45;29.75;;;;;;;;;;5008546;28;20084;-76
2023/01/29 10:54:25;;;;;;;58.85;31.45;;;;;;;;;;5009169;28;20080;-75
2023/01/29 10:56:51;;;;;;;52.08;30.10;;;;;;;;;;5009282;28;20128;-74
2023/01/29 10:59:18;;;;;;;50.20;30.77;;;;;;;;;;5009516;28;20117;-73
2023/01/29 11:01:44;;;;;;;50.08;30.42;;;;;;;;;;5013547;28;20172;-76
2023/01/29 11:04:11;;;;;;;58.22;32.10;;;;;;;;;;5011896;28;20115;-75
2023/01/29 11:06:38;;;;;;;55.20;32.75;;;;;;;;;;5011094;28;20026;-74
2023/01/29 11:09:22;;;;;;;49.13;31.38;;;;;;;;;;5013777;28;20095;-74
2023/01/29 11:12:07;;;;;;;52.80;32.03;;;;;;;;;;5013592;28;20707;-73
2023/01/29 11:14:42;;;;;;;54.92;32.47;;;;;;;;;;5012793;28;20174;-74
2023/01/29 11:17:16;;;;;;;60.35;32.60;;;;;;;;;;5012924;28;20038;-76
2023/01/29 11:19:44;;;;;;;57.90;32.92;;;;;;;;;;5014381;28;20022;-76
2023/01/29 11:22:20;;;;;;;57.40;33.08;;;;;;;;;;5013282;28;20038;-77
2023/01/29 11:25:06;;;;;;;54.45;32.53;;;;;;;;;;5013383;28;20034;-75
2023/01/29 11:27:34;;;;;;;63.38;35.97;;;;;;;;;;5013006;28;20041;-73
2023/01/29 11:30:04;;;;;;;57.83;33.42;;;;;;;;;;5011669;28;20048;-77
2023/01/29 11:32:33;;;;;;;55.90;32.35;;;;;;;;;;4995134;28;20410;-75
2023/01/29 11:35:01;;;;;;;55.47;33.55;;;;;;;;;;5011704;28;20507;-75
2023/01/29 11:37:35;;;;;;;58.63;34.22;;;;;;;;;;5012717;28;20030;-74
2023/01/29 11:40:01;;;;;;;56.83;33.22;;;;;;;;;;5012627;28;20158;-75
2023/01/29 11:42:30;;;;;;;59.53;35.35;;;;;;;;;;5011540;28;20037;-76
2023/01/29 11:44:56;;;;;;;53.90;33.75;;;;;;;;;;5012824;28;20115;-74
2023/01/29 11:47:27;;;;;;;59.60;35.38;;;;;;;;;;5012386;28;20057;-74
2023/01/29 11:49:57;;;;;;;59.17;33.80;;;;;;;;;;5012891;28;20033;-75
2023/01/29 11:52:24;;;;;;;57.38;34.25;;;;;;;;;;5012686;28;20076;-76
2023/01/29 11:54:52;;;;;;;57.03;35.17;;;;;;;;;;5012622;28;20234;-74
2023/01/29 11:57:22;;;;;;;56.08;34.53;;;;;;;;;;5011107;28;20034;-74
2023/01/29 11:59:50;;;;;;;57.00;33.88;;;;;;;;;;5002781;28;20049;-74
2023/01/29 12:02:25;;;;;;;61.13;34.70;;;;;;;;;;5009655;28;20514;-74
2023/01/29 12:04:52;;;;;;;59.65;36.00;;;;;;;;;;5011504;28;20099;-73
2023/01/29 12:07:19;;;;;;;59.80;34.15;;;;;;;;;;5010161;28;20026;-75
2023/01/29 12:09:53;;;;;;;56.58;34.45;;;;;;;;;;5012656;28;20034;-76
2023/01/29 12:12:31;;;;;;;56.28;33.72;;;;;;;;;;5011013;28;20101;-77
2023/01/29 12:15:05;;;;;;;58.70;35.85;;;;;;;;;;5011992;28;20156;-76
2023/01/29 12:17:33;;;;;;;57.03;34.85;;;;;;;;;;5013742;28;20100;-74
2023/01/29 12:20:04;;;;;;;63.65;37.00;;;;;;;;;;5013828;28;20105;-75
2023/01/29 12:22:37;;;;;;;57.90;35.08;;;;;;;;;;5014357;28;20104;-74
2023/01/29 12:25:11;;;;;;;54.67;33.63;;;;;;;;;;5014312;28;20101;-74
2023/01/29 12:27:37;;;;;;;58.50;36.08;;;;;;;;;;5010904;28;20030;-74
2023/01/29 12:30:10;;;;;;;56.70;34.58;;;;;;;;;;5012053;28;20208;-74
2023/01/29 12:32:46;;;;;;;57.40;35.45;;;;;;;;;;5010543;28;20026;-74
2023/01/29 12:35:18;;;;;;;58.75;36.90;;;;;;;;;;5010446;28;20029;-75
2023/01/29 12:37:44;;;;;;;57.90;36.55;;;;;;;;;;5010533;28;20033;-73
2023/01/29 12:40:15;;;;;;;58.13;34.35;;;;;;;;;;5010168;28;20038;-75
2023/01/29 12:42:49;;;;;;;59.60;36.00;;;;;;;;;;5007654;28;20061;-73
2023/01/29 12:45:17;;;;;;;56.15;34.90;;;;;;;;;;5010887;28;20300;-74
2023/01/29 12:47:46;;;;;;;61.00;35.78;;;;;;;;;;5007748;28;20088;-74
2023/01/29 12:50:15;;;;;;;58.45;36.00;;;;;;;;;;5010949;28;20083;-76
2023/01/29 12:52:48;;;;;;;58.42;35.22;;;;;;;;;;5011003;28;20124;-74
2023/01/29 12:55:18;;;;;;;58.97;36.60;;;;;;;;;;5010808;28;20229;-75
2023/01/29 12:57:44;;;;;;;54.58;34.03;;;;;;;;;;5011558;28;20053;-75
2023/01/29 13:00:33;;;;;;;59.67;35.75;;;;;;;;;;5009969;28;20087;-73
2023/01/29 13:03:02;;;;;;;59.85;37.08;;;;;;;;;;5009723;28;20122;-74
2023/01/29 13:05:30;;;;;;;58.10;35.70;;;;;;;;;;5010163;28;20026;-73
2023/01/29 13:08:08;;;;;;;61.83;36.30;;;;;;;;;;5011334;28;20030;-73
2023/01/29 13:10:40;;;;;;;57.33;34.67;;;;;;;;;;5009906;28;20103;-74
2023/01/29 13:13:25;;;;;;;58.38;33.88;;;;;;;;;;5010115;28;20030;-75
2023/01/29 13:15:52;;;;;;;54.38;34.28;;;;;;;;;;5009823;28;20046;-73
2023/01/29 13:18:21;;;;;;;54.92;34.58;;;;;;;;;;5010334;28;20060;-75
2023/01/29 13:20:49;;;;;;;57.75;34.47;;;;;;;;;;5013800;28;20030;-75
2023/01/29 13:23:25;;;;;;;64.05;33.80;;;;;;;;;;5010485;28;20037;-74
2023/01/29 13:25:52;;;;;;;56.15;34.22;;;;;;;;;;5012906;28;20034;-74
2023/01/29 13:28:19;;;;;;;53.50;33.13;;;;;;;;;;5013343;28;20096;-74
2023/01/29 13:30:45;;;;;;;54.97;34.40;;;;;;;;;;5014157;28;20030;-75
2023/01/29 13:33:16;;;;;;;55.83;33.75;;;;;;;;;;5012468;28;20116;-74
2023/01/29 13:35:45;;;;;;;118.70;33.95;;;;;;;;;;5013704;28;20026;-75
2023/01/29 13:38:37;;;;;;;59.13;33.42;;;;;;;;;;5011836;28;20034;-76
2023/01/29 13:41:04;;;;;;;56.97;34.83;;;;;;;;;;4999139;28;20065;-74
2023/01/29 13:43:49;;;;;;;49.33;31.58;;;;;;;;;;4992407;28;20136;-73
2023/01/29 13:46:17;;;;;;;50.40;32.72;;;;;;;;;;5001092;28;20487;-75
2023/01/29 13:48:45;;;;;;;57.25;34.42;;;;;;;;;;5007664;28;20033;-76
2023/01/29 13:51:18;;;;;;;53.83;32.50;;;;;;;;;;5000914;28;20161;-75
2023/01/29 13:53:51;;;;;;;50.85;31.10;;;;;;;;;;5005174;28;20022;-75
2023/01/29 13:56:41;;;;;;;52.08;31.60;;;;;;;;;;4990817;28;20068;-75
2023/01/29 13:59:20;;;;;;;48.40;31.08;;;;;;;;;;5004424;28;20086;-75
2023/01/29 14:01:46;;;;;;;49.05;31.13;;;;;;;;;;5009340;28;20037;-75
2023/01/29 14:04:25;;;;;;;58.53;31.70;;;;;;;;;;5001346;28;20111;-76
2023/01/29 14:06:55;;;;;;;48.70;31.60;;;;;;;;;;5007961;28;20099;-76
2023/01/29 14:09:31;;;;;;;55.13;32.83;;;;;;;;;;5003779;28;20041;-73
2023/01/29 14:11:57;;;;;;;50.17;32.05;;;;;;;;;;5005428;28;20025;-75
2023/01/29 14:14:42;;;;;;;46.85;31.00;;;;;;;;;;5009493;28;20553;-74
2023/01/29 14:17:09;;;;;;;55.63;34.47;;;;;;;;;;5009908;28;20403;-80
2023/01/29 14:19:36;;;;;;;51.30;29.92;;;;;;;;;;5000488;28;20038;-75
2023/01/29 14:22:04;;;;;;;93.40;33.60;;;;;;;;;;4985877;28;20064;-77
2023/01/29 14:24:30;;;;;;;51.08;32.13;;;;;;;;;;4999715;28;20041;-75
2023/01/29 14:26:57;;;;;;;48.13;30.90;;;;;;;;;;4998068;28;20076;-73
2023/01/29 14:29:30;;;;;;;53.17;31.17;;;;;;;;;;5006459;28;20034;-74
2023/01/29 14:32:08;;;;;;;47.75;30.42;;;;;;;;;;5005831;28;20072;-75
2023/01/29 14:34:54;;;;;;;50.40;30.02;;;;;;;;;;4984371;28;20034;-75
2023/01/29 14:37:26;;;;;;;46.42;30.83;;;;;;;;;;5016785;28;20052;-79
2023/01/29 14:39:56;;;;;;;46.55;29.65;;;;;;;;;;5019451;28;20018;-81
2023/01/29 14:42:27;;;;;;;50.38;30.77;;;;;;;;;;5004996;28;20042;-80
2023/01/29 14:44:57;;;;;;;48.40;31.52;;;;;;;;;;5015897;28;20085;-79
2023/01/29 14:47:35;;;;;;;50.33;30.67;;;;;;;;;;5011353;28;20100;-80
2023/01/29 14:50:20;;;;;;;50.30;30.63;;;;;;;;;;5011064;28;20025;-79
2023/01/29 14:52:49;;;;;;;45.58;29.88;;;;;;;;;;5014974;28;20030;-78
2023/01/29 14:55:23;;;;;;;46.40;30.90;;;;;;;;;;5004019;28;20446;-77
2023/01/29 14:57:50;;;;;;;48.10;29.15;;;;;;;;;;5010840;28;20030;-84
2023/01/29 15:00:43;;;;;;;48.17;30.25;;;;;;;;;;5019615;28;20128;-81
2023/01/29 15:03:16;;;;;;;45.88;29.42;;;;;;;;;;5019947;28;20049;-78
2023/01/29 15:05:42;;;;;;;58.35;30.33;;;;;;;;;;5019257;28;20055;-80